createdAt,value
2023-01-09T04:56:54.714Z,13.93
2023-01-09T04:59:21.248Z,13.48
2023-01-09T05:01:47.855Z,13.48
2023-01-09T05:04:15.676Z,12.43
2023-01-09T05:06:42.202Z,13.02
2023-01-09T05:09:08.656Z,13.30
2023-01-09T05:11:35.108Z,12.73
2023-01-09T05:14:01.574Z,12.82
2023-01-09T05:16:28.158Z,13.20
2023-01-09T05:18:57.151Z,12.45
2023-01-09T05:21:24.269Z,13.00
2023-01-09T05:23:50.874Z,13.10
2023-01-09T05:26:17.515Z,13.60
2023-01-09T05:28:43.956Z,13.27
2023-01-09T05:31:10.517Z,12.13
2023-01-09T05:33:36.979Z,12.73
2023-01-09T05:36:03.548Z,13.88
2023-01-09T05:38:29.987Z,12.10
2023-01-09T05:40:56.486Z,11.85
2023-01-09T05:43:22.938Z,12.77
2023-01-09T05:45:49.439Z,13.13
2023-01-09T05:48:15.986Z,12.88
2023-01-09T05:50:42.490Z,12.43
2023-01-09T05:53:09.078Z,12.88
2023-01-09T05:55:35.713Z,12.32
2023-01-09T05:58:02.282Z,11.53
2023-01-09T06:00:28.760Z,11.82
2023-01-09T06:02:55.315Z,12.32
2023-01-09T06:05:21.862Z,12.85
2023-01-09T06:07:48.311Z,13.23
2023-01-09T06:10:15.035Z,13.10
2023-01-09T06:12:42.440Z,13.13
2023-01-09T06:15:09.252Z,11.65
2023-01-09T06:17:35.845Z,12.18
2023-01-09T06:20:02.496Z,12.93
2023-01-09T06:22:28.939Z,11.50
2023-01-09T06:24:55.443Z,11.38
2023-01-09T06:27:21.955Z,12.25
2023-01-09T06:29:48.447Z,12.95
2023-01-09T06:32:15.141Z,11.68
2023-01-09T06:34:41.661Z,12.63
2023-01-09T06:37:08.330Z,12.05
2023-01-09T06:39:34.910Z,11.65
2023-01-09T06:42:01.510Z,12.43
2023-01-09T06:44:27.975Z,12.45
2023-01-09T06:46:54.459Z,12.40
2023-01-09T06:49:23.594Z,12.18
2023-01-09T06:51:51.155Z,12.25
2023-01-09T06:54:18.749Z,11.70
2023-01-09T06:56:45.427Z,11.50
2023-01-09T06:59:12.422Z,11.93
2023-01-09T07:01:42.452Z,12.77
2023-01-09T07:04:10.929Z,12.02
2023-01-09T07:06:37.679Z,11.50
2023-01-09T07:09:05.960Z,12.20
2023-01-09T07:11:35.240Z,12.13
2023-01-09T07:14:01.704Z,11.73
2023-01-09T07:16:28.148Z,11.48
2023-01-09T07:18:54.924Z,12.45
2023-01-09T07:21:24.147Z,11.82
2023-01-09T07:23:50.671Z,12.23
2023-01-09T07:26:17.197Z,11.02
2023-01-09T07:28:43.643Z,12.45
2023-01-09T07:31:10.136Z,12.15
2023-01-09T07:33:36.673Z,12.70
2023-01-09T07:36:03.182Z,11.53
2023-01-09T07:38:30.218Z,11.55
2023-01-09T07:40:56.716Z,12.25
2023-01-09T07:43:23.192Z,12.25
2023-01-09T07:45:49.716Z,11.88
2023-01-09T07:48:16.175Z,12.87
2023-01-09T07:50:42.612Z,14.10
2023-01-09T07:53:09.126Z,12.45
2023-01-09T07:55:35.634Z,11.23
2023-01-09T07:58:04.765Z,12.68
2023-01-09T08:00:33.080Z,12.80
2023-01-09T08:02:59.773Z,12.60
2023-01-09T08:05:26.842Z,11.77
2023-01-09T08:07:53.776Z,11.95
2023-01-09T08:10:22.597Z,11.93
2023-01-09T08:12:49.842Z,12.00
2023-01-09T08:15:17.193Z,12.25
2023-01-09T08:17:45.133Z,12.27
2023-01-09T08:20:13.435Z,11.60
2023-01-09T08:22:43.648Z,11.68
2023-01-09T08:25:12.378Z,11.70
2023-01-09T08:27:40.505Z,12.15
2023-01-09T08:30:07.712Z,12.48
2023-01-09T08:32:34.370Z,12.57
2023-01-09T08:35:03.553Z,13.07
2023-01-09T08:37:30.037Z,11.30
2023-01-09T08:39:56.566Z,13.07
2023-01-09T08:42:41.514Z,12.60
2023-01-09T08:45:29.155Z,11.88
2023-01-09T08:47:55.773Z,12.98
2023-01-09T08:50:22.493Z,11.87
2023-01-09T08:52:49.026Z,12.65
2023-01-09T08:55:15.580Z,13.00
2023-01-09T08:57:50.139Z,12.98
2023-01-09T09:00:21.556Z,13.07
2023-01-09T09:02:53.338Z,12.73
2023-01-09T09:05:20.929Z,13.13
2023-01-09T09:07:49.199Z,13.57
2023-01-09T09:10:18.788Z,12.45
2023-01-09T09:12:47.939Z,13.13
2023-01-09T09:15:23.960Z,13.93
2023-01-09T09:17:55.438Z,12.63
2023-01-09T09:20:23.212Z,13.48
2023-01-09T09:22:49.822Z,13.40
2023-01-09T09:25:17.582Z,13.45
2023-01-09T09:27:44.391Z,13.30
2023-01-09T09:30:16.190Z,12.90
2023-01-09T09:32:42.882Z,13.10
2023-01-09T09:35:09.616Z,12.82
2023-01-09T09:37:36.806Z,13.40
2023-01-09T09:40:17.406Z,12.60
2023-01-09T09:43:30.316Z,13.63
2023-01-09T09:46:22.089Z,12.25
2023-01-09T09:48:53.909Z,12.50
2023-01-09T09:51:47.967Z,13.90
2023-01-09T09:54:41.525Z,14.07
2023-01-09T09:57:14.895Z,13.68
2023-01-09T09:59:42.133Z,12.35
2023-01-09T10:02:26.488Z,13.68
2023-01-09T10:05:11.469Z,14.77
2023-01-09T10:07:44.609Z,13.77
2023-01-09T10:10:17.477Z,13.77
2023-01-09T10:13:23.015Z,14.43
2023-01-09T10:15:58.737Z,15.10
2023-01-09T10:18:59.064Z,15.13
2023-01-09T10:21:35.383Z,14.03
2023-01-09T10:24:26.171Z,14.60
2023-01-09T10:26:54.148Z,14.65
2023-01-09T10:29:45.667Z,13.95
2023-01-09T10:32:21.688Z,13.88
2023-01-09T10:35:12.868Z,13.50
2023-01-09T10:37:44.694Z,14.93
2023-01-09T10:40:25.654Z,14.43
2023-01-09T10:42:56.687Z,14.48
2023-01-09T10:45:37.319Z,14.02
2023-01-09T10:48:10.405Z,15.23
2023-01-09T10:50:40.152Z,15.82
2023-01-09T10:53:27.869Z,14.63
2023-01-09T10:56:08.975Z,14.23
2023-01-09T10:58:35.840Z,13.98
2023-01-09T11:01:03.203Z,14.47
2023-01-09T11:03:29.797Z,14.65
2023-01-09T11:05:58.475Z,15.43
2023-01-09T11:08:32.681Z,15.48
2023-01-09T11:11:01.079Z,14.75
2023-01-09T11:13:33.135Z,15.90
2023-01-09T11:16:14.744Z,15.48
2023-01-09T11:18:48.563Z,16.30
2023-01-09T11:21:29.533Z,15.18
2023-01-09T11:24:23.802Z,14.95
2023-01-09T11:26:53.659Z,16.57
2023-01-09T11:29:24.526Z,15.00
2023-01-09T11:31:55.481Z,15.85
2023-01-09T11:34:27.080Z,15.68
2023-01-09T11:36:55.004Z,16.60
2023-01-09T11:39:27.281Z,17.07
2023-01-09T11:41:56.077Z,17.52
2023-01-09T11:44:23.295Z,15.88
2023-01-09T11:46:50.101Z,15.98
2023-01-09T11:49:23.054Z,16.95
2023-01-09T11:52:04.848Z,16.33
2023-01-09T11:54:32.856Z,17.02
2023-01-09T11:56:59.961Z,16.85
2023-01-09T11:59:30.819Z,14.93
2023-01-09T12:02:17.917Z,16.23
2023-01-09T12:04:54.686Z,17.27
2023-01-09T12:07:48.755Z,16.55
2023-01-09T12:10:43.063Z,15.63
2023-01-09T12:13:29.666Z,16.95
2023-01-09T12:16:11.197Z,16.98
2023-01-09T12:18:40.920Z,15.23
2023-01-09T12:21:20.193Z,16.80
2023-01-09T12:24:05.238Z,15.48
2023-01-09T12:26:56.689Z,16.55
2023-01-09T12:30:02.247Z,16.63
2023-01-09T12:32:39.913Z,15.47
2023-01-09T12:35:44.029Z,16.20
2023-01-09T12:38:41.404Z,16.08
2023-01-09T12:41:36.964Z,16.58
2023-01-09T12:44:18.130Z,15.90
2023-01-09T12:46:51.033Z,16.23
2023-01-09T12:49:28.788Z,16.90
2023-01-09T12:52:12.423Z,16.20
2023-01-09T12:54:41.903Z,16.73
2023-01-09T12:57:20.792Z,16.55
2023-01-09T12:59:48.096Z,17.60
2023-01-09T13:02:20.660Z,16.60
2023-01-09T13:04:54.404Z,17.65
2023-01-09T13:07:25.257Z,16.20
2023-01-09T13:10:18.802Z,16.10
2023-01-09T13:12:47.180Z,16.67
2023-01-09T13:15:30.277Z,15.00
2023-01-09T13:18:04.888Z,15.68
2023-01-09T13:20:49.335Z,16.20
2023-01-09T13:23:26.807Z,17.63
2023-01-09T13:25:57.676Z,16.93
2023-01-09T13:28:31.445Z,16.48
2023-01-09T13:31:19.473Z,17.48
2023-01-09T13:33:51.383Z,16.25
2023-01-09T13:36:29.708Z,15.85
2023-01-09T13:38:57.856Z,16.20
2023-01-09T13:41:45.680Z,15.50
2023-01-09T13:44:18.357Z,16.08
2023-01-09T13:46:50.318Z,16.98
2023-01-09T13:49:41.598Z,16.58
2023-01-09T13:52:52.758Z,17.43
2023-01-09T13:55:19.287Z,17.20
2023-01-09T13:58:05.703Z,17.40
2023-01-09T14:00:34.948Z,17.45
2023-01-09T14:03:37.685Z,16.35
2023-01-09T14:06:12.010Z,17.83
2023-01-09T14:08:38.959Z,17.80
2023-01-09T14:11:06.513Z,18.52
2023-01-09T14:13:41.481Z,18.60
2023-01-09T14:16:15.064Z,17.88
2023-01-09T14:18:49.232Z,18.53
2023-01-09T14:21:15.949Z,18.42
2023-01-09T14:24:01.279Z,18.88
2023-01-09T14:26:46.924Z,18.08
2023-01-09T14:29:29.369Z,18.65
2023-01-09T14:32:23.645Z,19.13
2023-01-09T14:35:13.185Z,20.08
2023-01-09T14:37:41.087Z,18.70
2023-01-09T14:40:15.242Z,18.67
2023-01-09T14:42:41.944Z,19.95
2023-01-09T14:45:16.680Z,19.70
2023-01-09T14:48:01.859Z,19.73
2023-01-09T14:50:34.031Z,20.55
2023-01-09T14:53:08.043Z,20.58
2023-01-09T14:55:55.194Z,21.80
2023-01-09T14:58:25.918Z,20.47
2023-01-09T15:00:57.736Z,21.17
2023-01-09T15:03:26.068Z,22.58
2023-01-09T15:05:52.859Z,23.10
2023-01-09T15:08:23.292Z,23.55
2023-01-09T15:10:52.093Z,22.63
2023-01-09T15:13:29.611Z,22.98
2023-01-09T15:15:56.315Z,22.00
2023-01-09T15:18:25.203Z,21.83
2023-01-09T15:20:54.198Z,20.67
2023-01-09T15:23:25.727Z,21.37
2023-01-09T15:25:52.254Z,21.55
2023-01-09T15:28:40.573Z,22.45
2023-01-09T15:31:15.727Z,21.58
2023-01-09T15:33:44.668Z,21.38
2023-01-09T15:36:18.493Z,22.10
2023-01-09T15:38:45.549Z,20.70
2023-01-09T15:41:36.080Z,19.98
2023-01-09T15:44:04.284Z,20.25
2023-01-09T15:46:30.961Z,19.77
2023-01-09T15:48:57.838Z,19.47
2023-01-09T15:51:24.531Z,18.67
2023-01-09T15:53:51.381Z,19.38
2023-01-09T15:56:24.149Z,19.45
2023-01-09T15:58:52.771Z,19.98
2023-01-09T16:01:30.396Z,21.10
2023-01-09T16:04:16.894Z,21.50
2023-01-09T16:06:51.380Z,19.92
2023-01-09T16:09:21.733Z,19.50
2023-01-09T16:11:53.018Z,19.52
2023-01-09T16:14:22.737Z,19.40
2023-01-09T16:16:51.311Z,20.13
2023-01-09T16:19:50.116Z,20.70
2023-01-09T16:22:36.962Z,21.73
2023-01-09T16:25:22.011Z,21.35
2023-01-09T16:30:56.665Z,20.80
2023-01-09T16:33:24.881Z,21.52
2023-01-09T16:35:51.435Z,22.63
2023-01-09T16:38:18.418Z,22.70
2023-01-09T16:41:19.495Z,22.97
2023-01-09T16:43:46.615Z,20.75
2023-01-09T16:46:17.865Z,20.02
2023-01-09T16:48:44.407Z,22.48
2023-01-09T16:51:15.433Z,20.33
2023-01-09T16:53:41.929Z,22.27
2023-01-09T16:56:14.727Z,23.05
2023-01-09T16:58:41.295Z,22.48
2023-01-09T17:01:07.928Z,23.58
2023-01-09T17:03:34.443Z,24.65
2023-01-09T17:06:01.395Z,21.87
2023-01-09T17:08:33.432Z,23.65
2023-01-09T17:10:59.930Z,23.45
2023-01-09T17:13:26.727Z,25.25
2023-01-09T17:15:54.114Z,25.63
2023-01-09T17:18:23.217Z,24.73
2023-01-09T17:20:54.524Z,25.73
2023-01-09T17:23:22.540Z,25.17
2023-01-09T17:26:10.008Z,24.58
2023-01-09T17:28:36.949Z,23.95
2023-01-09T17:31:06.442Z,23.87
2023-01-09T17:33:33.449Z,24.55
2023-01-09T17:36:01.803Z,25.13
2023-01-09T17:38:28.289Z,25.33
2023-01-09T17:40:57.453Z,24.30
2023-01-09T17:43:24.455Z,25.40
2023-01-09T17:45:51.125Z,23.95
2023-01-09T17:48:21.027Z,23.38
2023-01-09T17:50:48.928Z,23.95
2023-01-09T17:53:15.784Z,24.95
2023-01-09T17:55:42.413Z,25.40
2023-01-09T17:58:26.493Z,24.38
2023-01-09T18:03:31.067Z,23.90
2023-01-09T18:05:57.568Z,24.20
2023-01-09T18:08:24.045Z,23.50
2023-01-09T18:10:50.626Z,23.52
2023-01-09T18:13:17.352Z,24.15
2023-01-09T18:15:44.553Z,22.95
2023-01-09T18:18:11.612Z,25.33
2023-01-09T18:20:41.558Z,23.43
2023-01-09T18:23:08.752Z,24.55
2023-01-09T18:25:35.325Z,25.67
2023-01-09T18:28:03.301Z,24.75
2023-01-09T18:30:29.898Z,25.25
2023-01-09T18:32:56.424Z,26.37
2023-01-09T18:36:57.841Z,25.65
2023-01-09T18:39:24.400Z,25.27
2023-01-09T18:41:50.834Z,25.60
2023-01-09T18:44:20.082Z,25.33
2023-01-09T18:46:47.069Z,24.90
2023-01-09T18:49:13.637Z,24.52
2023-01-09T18:51:40.248Z,26.27
2023-01-09T18:54:08.294Z,24.98
2023-01-09T18:56:35.299Z,25.30
2023-01-09T18:59:01.823Z,27.33
2023-01-09T19:01:29.646Z,29.17
2023-01-09T19:06:11.542Z,28.17
2023-01-09T19:08:38.213Z,27.92
2023-01-09T19:11:04.888Z,26.70
2023-01-09T19:13:34.224Z,28.80
2023-01-09T19:16:01.499Z,28.25
2023-01-09T19:18:29.100Z,25.60
2023-01-09T19:20:55.660Z,26.05
2023-01-09T19:23:24.708Z,25.70
2023-01-09T19:25:52.753Z,25.40
2023-01-09T19:28:20.440Z,26.45
2023-01-09T19:30:47.195Z,23.37
2023-01-09T19:33:13.814Z,24.50
2023-01-09T19:35:40.376Z,24.42
2023-01-09T19:38:06.861Z,24.33
2023-01-09T19:40:33.374Z,24.50
2023-01-09T19:43:02.381Z,23.13
2023-01-09T19:45:28.959Z,24.38
2023-01-09T19:47:56.389Z,23.90
2023-01-09T19:50:22.833Z,23.17
2023-01-09T19:52:50.800Z,22.13
2023-01-09T19:55:17.552Z,22.63
2023-01-09T19:57:44.194Z,22.17
2023-01-09T20:00:11.950Z,21.45
2023-01-09T20:02:38.505Z,20.55
2023-01-09T20:05:05.413Z,21.13
2023-01-09T20:07:31.932Z,21.83
2023-01-09T20:09:58.414Z,19.17
2023-01-09T20:12:24.852Z,20.73
2023-01-09T20:14:51.731Z,18.92
2023-01-09T20:17:19.741Z,19.00
2023-01-09T20:19:46.271Z,17.97
2023-01-09T20:22:13.204Z,18.58
2023-01-09T20:24:40.153Z,17.77
2023-01-09T20:27:06.703Z,18.63
2023-01-09T20:29:33.339Z,17.50
2023-01-09T20:32:01.262Z,17.10
2023-01-09T20:34:27.813Z,17.67
2023-01-09T20:36:54.696Z,15.15
2023-01-09T20:39:21.441Z,17.67
2023-01-09T20:41:48.288Z,16.25
2023-01-09T20:44:15.621Z,17.07
2023-01-09T20:46:47.462Z,16.00
2023-01-09T20:49:16.011Z,15.30
2023-01-09T20:51:47.818Z,16.85
2023-01-09T20:54:15.375Z,16.88
2023-01-09T20:56:42.106Z,16.67
2023-01-09T20:59:17.164Z,16.40
2023-01-09T21:01:43.966Z,15.82
2023-01-09T21:04:10.528Z,17.50
2023-01-09T21:06:37.088Z,16.02
2023-01-09T21:09:04.120Z,15.83
2023-01-09T21:11:30.660Z,16.80
